Time;durP1;ratioP1;P1;durP2;ratioP2;P2;SDS_P1;SDS_P2;PMS_P1;PMS_P2;Temp;Humidity;BMP_temperature;BMP_pressure;BME280_temperature;BME280_humidity;BME280_pressure;Samples;Min_cycle;Max_cycle;Signal;HPM_P1;HPM_P2
2021/10/25 00:01:30;;;;;;;14.65;8.18;;;;;;;3.73;100.00;96955.19;5017007;28;20080;-55
2021/10/25 00:03:59;;;;;;;14.43;8.40;;;;;;;3.46;100.00;96957.63;5024534;28;20060;-60
2021/10/25 00:06:28;;;;;;;12.10;8.50;;;;;;;3.32;100.00;96963.63;5035223;28;20475;-54
2021/10/25 00:08:57;;;;;;;10.63;8.48;;;;;;;3.25;100.00;96960.53;5045489;28;20080;-59
2021/10/25 00:11:25;;;;;;;10.73;8.85;;;;;;;3.43;100.00;96965.63;5045709;28;20072;-57
2021/10/25 00:13:54;;;;;;;12.93;9.15;;;;;;;3.76;100.00;96961.06;5040296;28;20069;-53
2021/10/25 00:16:22;;;;;;;13.15;9.93;;;;;;;3.74;100.00;96962.06;5040372;28;20163;-58
2021/10/25 00:18:51;;;;;;;15.02;10.13;;;;;;;3.84;100.00;96960.59;5031646;28;20076;-58
2021/10/25 00:21:19;;;;;;;12.68;9.40;;;;;;;3.53;100.00;96970.22;5014372;28;20156;-59
2021/10/25 00:23:49;;;;;;;15.95;10.13;;;;;;;3.63;100.00;96959.25;5047486;28;20088;-54
2021/10/25 00:26:18;;;;;;;13.07;10.13;;;;;;;3.80;100.00;96966.94;5024346;28;20061;-55
2021/10/25 00:28:46;;;;;;;15.48;10.35;;;;;;;3.68;100.00;96962.41;5025260;28;20073;-59
2021/10/25 00:31:15;;;;;;;13.50;9.95;;;;;;;3.80;100.00;96959.94;5019734;28;20478;-58
2021/10/25 00:33:44;;;;;;;16.65;9.75;;;;;;;3.76;100.00;96965.44;5022932;28;20548;-61
2021/10/25 00:36:12;;;;;;;13.07;8.98;;;;;;;3.76;100.00;96960.22;5029080;28;20115;-58
2021/10/25 00:38:41;;;;;;;11.13;8.32;;;;;;;3.75;100.00;96962.00;5050152;28;20068;-55
2021/10/25 00:41:11;;;;;;;12.63;8.70;;;;;;;3.59;100.00;96958.59;5027743;28;20077;-58
2021/10/25 00:43:40;;;;;;;13.75;9.45;;;;;;;3.52;100.00;96962.50;5021656;28;20387;-60
2021/10/25 00:46:10;;;;;;;10.60;8.13;;;;;;;3.48;100.00;96955.78;5019939;28;20455;-59
2021/10/25 00:48:39;;;;;;;14.63;9.38;;;;;;;3.62;100.00;96950.59;5016253;28;20080;-60
2021/10/25 00:51:09;;;;;;;11.35;8.98;;;;;;;3.63;100.00;96949.66;5028679;28;20089;-56
2021/10/25 00:53:38;;;;;;;11.73;8.95;;;;;;;3.43;100.00;96953.41;5041221;28;20068;-58
2021/10/25 00:56:07;;;;;;;12.15;9.02;;;;;;;3.41;100.00;96950.09;5023952;28;20064;-60
2021/10/25 00:58:37;;;;;;;13.27;9.23;;;;;;;3.53;100.00;96940.69;5018153;28;20070;-58
2021/10/25 01:01:06;;;;;;;11.63;8.63;;;;;;;3.47;100.00;96934.06;5024563;28;20456;-57
2021/10/25 01:03:36;;;;;;;10.95;8.43;;;;;;;3.50;100.00;96936.50;5017562;28;20083;-58
2021/10/25 01:06:06;;;;;;;10.98;8.95;;;;;;;3.41;100.00;96944.03;5023619;28;20084;-60
2021/10/25 01:08:37;;;;;;;9.35;7.80;;;;;;;3.64;100.00;96940.06;5035260;28;20472;-58
2021/10/25 01:11:05;;;;;;;11.20;8.38;;;;;;;3.24;100.00;96947.59;5038309;28;20061;-57
2021/10/25 01:13:34;;;;;;;12.18;8.45;;;;;;;3.51;100.00;96932.97;5034118;28;20096;-60
2021/10/25 01:16:05;;;;;;;11.68;8.65;;;;;;;3.47;100.00;96930.63;5026737;28;20474;-59
2021/10/25 01:18:33;;;;;;;;;;;;;;;3.45;100.00;96932.50;5023739;28;20081;-57
2021/10/25 01:21:03;;;;;;;10.75;9.00;;;;;;;3.47;100.00;96930.63;5048540;28;19952;-58
2021/10/25 01:23:32;;;;;;;14.15;9.07;;;;;;;3.15;100.00;96935.91;5040043;28;20072;-57
2021/10/25 01:26:00;;;;;;;12.73;8.85;;;;;;;3.27;100.00;96924.81;5043544;28;20069;-60
2021/10/25 01:28:29;;;;;;;11.70;9.40;;;;;;;2.99;100.00;96930.72;5039114;28;20468;-56
2021/10/25 01:30:58;;;;;;;12.93;10.07;;;;;;;3.00;100.00;96942.84;5039220;28;20053;-58
2021/10/25 01:33:28;;;;;;;37.95;11.43;;;;;;;3.12;100.00;96940.47;5031583;28;20073;-55
2021/10/25 01:35:56;;;;;;;;;;;;;;;3.09;100.00;96934.50;5046699;28;20102;-58
2021/10/25 01:38:26;;;;;;;17.83;10.05;;;;;;;3.35;100.00;96934.78;5030597;28;19956;-60
2021/10/25 01:40:55;;;;;;;14.20;9.23;;;;;;;3.11;100.00;96931.81;5023950;28;20080;-57
2021/10/25 01:43:23;;;;;;;13.65;9.40;;;;;;;3.06;100.00;96941.63;5030477;28;20073;-60
2021/10/25 01:45:52;;;;;;;14.02;9.40;;;;;;;3.09;100.00;96938.88;5034815;28;20068;-57
2021/10/25 01:48:20;;;;;;;11.45;8.57;;;;;;;2.83;100.00;96938.56;5038292;28;20521;-50
2021/10/25 01:50:48;;;;;;;13.02;9.18;;;;;;;2.93;100.00;96938.91;5031665;28;20522;-60
2021/10/25 01:53:17;;;;;;;13.10;8.45;;;;;;;2.91;100.00;96945.13;5025261;28;20077;-57
2021/10/25 01:55:49;;;;;;;11.10;8.77;;;;;;;3.08;100.00;96943.25;5027344;28;20743;-57
2021/10/25 01:58:18;;;;;;;11.88;8.35;;;;;;;2.92;100.00;96942.41;5029544;28;20057;-57
2021/10/25 02:00:47;;;;;;;10.35;8.27;;;;;;;2.99;100.00;96935.94;5021252;28;20041;-55
2021/10/25 02:03:16;;;;;;;11.57;8.60;;;;;;;3.20;100.00;96936.50;5031559;28;20090;-57
2021/10/25 02:05:45;;;;;;;11.63;8.40;;;;;;;3.12;100.00;96941.31;5023203;28;20088;-58
2021/10/25 02:08:13;;;;;;;12.52;8.13;;;;;;;3.20;100.00;96933.03;5025843;28;20065;-57
2021/10/25 02:10:42;;;;;;;11.75;8.63;;;;;;;3.20;100.00;96927.84;5029766;28;20076;-58
2021/10/25 02:13:15;;;;;;;11.13;8.25;;;;;;;3.48;100.00;96919.28;5036216;28;20068;-60
2021/10/25 02:15:45;;;;;;;11.23;8.38;;;;;;;3.12;100.00;96915.25;5033840;28;20100;-58
2021/10/25 02:18:14;;;;;;;10.87;8.47;;;;;;;3.08;100.00;96916.34;5015200;28;20065;-57
2021/10/25 02:20:43;;;;;;;12.50;8.65;;;;;;;3.43;100.00;96911.69;5027146;28;20334;-58
2021/10/25 02:23:12;;;;;;;12.65;9.90;;;;;;;3.29;100.00;96915.13;5020793;28;20076;-59
2021/10/25 02:25:41;;;;;;;14.05;10.30;;;;;;;3.45;100.00;96907.25;5025860;28;20061;-60
2021/10/25 02:28:09;;;;;;;14.13;9.73;;;;;;;3.30;100.00;96903.78;5028713;28;20070;-61
2021/10/25 02:30:39;;;;;;;11.77;9.77;;;;;;;3.42;100.00;96901.38;5029307;28;20076;-57
2021/10/25 02:33:08;;;;;;;13.80;9.82;;;;;;;3.40;100.00;96903.22;5026547;28;20564;-59
2021/10/25 02:35:36;;;;;;;47.33;10.70;;;;;;;3.32;100.00;96908.91;5037320;28;20095;-58
2021/10/25 02:38:04;;;;;;;13.90;10.20;;;;;;;3.16;100.00;96915.91;5021697;28;20069;-59
2021/10/25 02:40:33;;;;;;;12.27;9.70;;;;;;;2.76;100.00;96916.41;5024079;28;20458;-55
2021/10/25 02:43:01;;;;;;;14.95;10.43;;;;;;;2.89;100.00;96920.91;5026277;28;20529;-56
2021/10/25 02:45:30;;;;;;;13.60;10.45;;;;;;;3.16;100.00;96908.94;5025724;28;20085;-59
2021/10/25 02:48:01;;;;;;;18.50;10.40;;;;;;;3.11;100.00;96916.19;5018620;28;20088;-60
2021/10/25 02:50:30;;;;;;;16.30;10.63;;;;;;;3.35;100.00;96908.72;5027579;28;20072;-58
2021/10/25 02:52:59;;;;;;;17.73;10.13;;;;;;;3.26;100.00;96917.06;5029083;28;20061;-58
2021/10/25 02:55:27;;;;;;;13.02;9.43;;;;;;;3.38;100.00;96912.91;5025868;28;20099;-55
2021/10/25 02:57:56;;;;;;;16.15;10.52;;;;;;;3.02;100.00;96916.69;5048905;28;20068;-57
2021/10/25 03:00:24;;;;;;;17.02;11.20;;;;;;;3.02;100.00;96916.69;5047466;28;20085;-58
2021/10/25 03:02:53;;;;;;;16.10;11.07;;;;;;;2.93;100.00;96919.84;5022024;28;20085;-58
2021/10/25 03:05:24;;;;;;;15.10;10.75;;;;;;;3.00;100.00;96915.97;5021031;28;20084;-58
2021/10/25 03:07:52;;;;;;;20.40;10.90;;;;;;;3.04;100.00;96905.25;5031037;28;20069;-60
2021/10/25 03:10:21;;;;;;;23.88;11.38;;;;;;;2.35;100.00;96905.66;5021830;28;20069;-58
2021/10/25 03:12:49;;;;;;;20.77;11.05;;;;;;;2.60;100.00;96919.00;5022180;28;20057;-60
2021/10/25 03:15:18;;;;;;;22.73;11.30;;;;;;;3.10;100.00;96917.13;5028866;28;20077;-61
2021/10/25 03:17:46;;;;;;;16.10;10.50;;;;;;;3.11;100.00;96910.97;5021772;28;20100;-59
2021/10/25 03:20:16;;;;;;;14.40;9.88;;;;;;;3.02;100.00;96911.47;5021583;28;20084;-58
2021/10/25 03:22:46;;;;;;;14.98;10.05;;;;;;;3.20;100.00;96915.66;5033564;28;20068;-61
2021/10/25 03:25:16;;;;;;;13.95;9.80;;;;;;;2.85;100.00;96923.69;5040254;28;20096;-62
2021/10/25 03:27:45;;;;;;;14.48;10.35;;;;;;;2.77;100.00;96930.25;5030418;28;20045;-62
2021/10/25 03:30:14;;;;;;;13.05;10.00;;;;;;;2.87;100.00;96926.22;5051021;28;20077;-61
2021/10/25 03:32:43;;;;;;;13.27;9.50;;;;;;;2.99;100.00;96924.69;5020734;28;20088;-60
2021/10/25 03:35:11;;;;;;;13.13;10.18;;;;;;;2.81;100.00;96921.34;5010300;28;20066;-60
2021/10/25 03:37:40;;;;;;;13.80;9.27;;;;;;;2.73;100.00;96920.94;5023923;28;20470;-60
2021/10/25 03:40:10;;;;;;;12.07;8.65;;;;;;;2.77;100.00;96927.66;5020558;28;20525;-59
2021/10/25 03:42:42;;;;;;;11.48;8.80;;;;;;;2.86;100.00;96924.56;5016917;28;20049;-61
2021/10/25 03:45:18;;;;;;;11.70;8.65;;;;;;;3.21;100.00;96925.16;5024535;28;20077;-62
2021/10/25 03:47:51;;;;;;;10.32;8.88;;;;;;;3.10;100.00;96927.53;5035769;28;21376;-59
2021/10/25 03:50:22;;;;;;;11.25;8.50;;;;;;;3.21;100.00;96919.09;5026322;28;20064;-61
2021/10/25 03:52:54;;;;;;;12.20;8.98;;;;;;;3.13;100.00;96926.50;5020301;28;20061;-61
2021/10/25 03:55:29;;;;;;;10.57;8.73;;;;;;;3.18;100.00;96930.53;5021177;28;20069;-61
2021/10/25 04:01:00;;;;;;;15.70;9.80;;;;;;;3.11;100.00;96925.78;5032294;28;20077;-60
2021/10/25 04:26:22;;;;;;;10.90;9.00;;;;;;;3.31;100.00;96895.03;5016053;28;20491;-58
2021/10/25 04:28:52;;;;;;;12.95;8.63;;;;;;;3.15;100.00;96893.41;5032132;28;20106;-58
2021/10/25 04:31:21;;;;;;;11.50;8.90;;;;;;;3.51;100.00;96893.88;5039776;28;20060;-60
2021/10/25 04:33:49;;;;;;;11.80;8.88;;;;;;;3.32;100.00;96896.69;5046922;28;20543;-62
2021/10/25 04:36:18;;;;;;;12.20;9.07;;;;;;;2.80;100.00;96896.25;5034073;28;20085;-60
2021/10/25 04:38:46;;;;;;;10.65;8.38;;;;;;;2.96;100.00;96893.59;5038603;28;20096;-61
2021/10/25 04:41:15;;;;;;;13.70;8.90;;;;;;;3.07;100.00;96881.66;5049567;28;20564;-60
2021/10/25 04:43:44;;;;;;;12.05;8.32;;;;;;;3.00;100.00;96892.50;5028131;28;20072;-60
2021/10/25 04:46:14;;;;;;;11.18;8.73;;;;;;;3.13;100.00;96875.22;5034395;28;20083;-59
2021/10/25 04:48:43;;;;;;;12.68;8.63;;;;;;;3.09;100.00;96877.16;5031697;28;20153;-61
2021/10/25 04:51:11;;;;;;;10.45;8.32;;;;;;;3.41;100.00;96876.25;5020165;28;20089;-60
2021/10/25 04:53:40;;;;;;;11.75;8.40;;;;;;;3.61;100.00;96882.88;5026209;28;20060;-61
2021/10/25 04:56:08;;;;;;;11.73;8.73;;;;;;;3.63;100.00;96889.69;5015249;28;20073;-59
2021/10/25 04:58:37;;;;;;;12.55;8.00;;;;;;;3.25;100.00;96894.53;5024724;28;20080;-60
2021/10/25 05:01:05;;;;;;;12.57;8.82;;;;;;;3.31;100.00;96896.81;5033309;28;20072;-61
2021/10/25 05:03:36;;;;;;;10.02;8.25;;;;;;;3.19;100.00;96893.13;5046532;28;20081;-62
2021/10/25 05:06:06;;;;;;;10.27;7.80;;;;;;;3.05;100.00;96896.50;5047608;28;20092;-62
2021/10/25 05:08:35;;;;;;;12.63;9.23;;;;;;;3.12;100.00;96897.00;5027386;28;20728;-62
2021/10/25 05:11:03;;;;;;;11.82;8.20;;;;;;;3.17;100.00;96883.72;5036781;28;20088;-63
2021/10/25 05:13:32;;;;;;;11.60;8.70;;;;;;;3.13;100.00;96888.25;5029727;28;20077;-63
2021/10/25 05:16:00;;;;;;;15.27;8.02;;;;;;;2.80;100.00;96893.63;5016853;28;20072;-62
2021/10/25 05:18:29;;;;;;;13.23;8.15;;;;;;;3.12;100.00;96886.59;5013215;28;20084;-62
2021/10/25 05:20:59;;;;;;;10.82;8.27;;;;;;;3.04;100.00;96892.25;5019376;28;20485;-61
2021/10/25 05:23:28;;;;;;;14.48;8.95;;;;;;;3.01;100.00;96883.75;5037389;28;20065;-60
2021/10/25 05:25:56;;;;;;;11.45;7.82;;;;;;;2.81;100.00;96892.69;5026747;28;20073;-62
2021/10/25 05:28:24;;;;;;;10.43;7.88;;;;;;;2.78;100.00;96898.91;5016643;28;20072;-62
2021/10/25 05:30:53;;;;;;;12.00;8.35;;;;;;;2.48;100.00;96891.06;5033044;28;20065;-56
2021/10/25 05:33:21;;;;;;;13.65;9.60;;;;;;;2.49;100.00;96892.72;5026249;28;20085;-60
2021/10/25 05:35:50;;;;;;;10.13;8.13;;;;;;;2.80;100.00;96893.63;5035623;28;20100;-62
2021/10/25 05:38:20;;;;;;;16.25;8.63;;;;;;;2.95;100.00;96899.72;5021879;28;20457;-61
2021/10/25 05:40:49;;;;;;;10.60;8.10;;;;;;;3.05;100.00;96904.34;5026134;28;20072;-61
2021/10/25 05:43:17;;;;;;;12.07;8.25;;;;;;;3.36;100.00;96886.09;5033144;28;20076;-62
2021/10/25 05:45:46;;;;;;;11.00;7.93;;;;;;;2.95;100.00;96886.72;5038168;28;20065;-62
2021/10/25 05:48:14;;;;;;;11.82;8.25;;;;;;;3.47;100.00;96892.34;5047440;28;20068;-61
2021/10/25 05:50:43;;;;;;;15.80;8.50;;;;;;;3.48;100.00;96891.44;5037410;28;21373;-62
2021/10/25 05:53:11;;;;;;;13.45;7.88;;;;;;;3.38;100.00;96892.91;5036750;28;20080;-60
2021/10/25 05:55:43;;;;;;;10.40;7.78;;;;;;;3.56;100.00;96885.75;5040224;28;20092;-63
2021/10/25 05:58:17;;;;;;;10.50;7.28;;;;;;;3.36;100.00;96884.31;5046306;28;20520;-59
2021/10/25 06:00:50;;;;;;;9.90;7.32;;;;;;;3.50;100.00;96875.69;5033538;28;20077;-61
2021/10/25 06:03:22;;;;;;;10.30;7.50;;;;;;;3.52;100.00;96876.44;5033348;28;20070;-60
2021/10/25 06:05:51;;;;;;;8.65;7.45;;;;;;;3.43;100.00;96884.81;5041508;28;20513;-57
2021/10/25 06:08:20;;;;;;;13.25;8.15;;;;;;;3.51;100.00;96888.66;5019352;28;20077;-62
2021/10/25 06:10:50;;;;;;;10.77;8.05;;;;;;;3.46;100.00;96889.84;5026566;28;20068;-64
2021/10/25 06:13:24;;;;;;;13.93;8.90;;;;;;;3.47;100.00;96897.56;5022138;28;20056;-60
2021/10/25 06:16:04;;;;;;;13.75;8.45;;;;;;;3.53;100.00;96896.38;5037671;28;20483;-60
2021/10/25 06:18:32;;;;;;;13.45;8.80;;;;;;;3.59;100.00;96884.75;5020761;28;20077;-59
2021/10/25 06:21:01;;;;;;;12.98;7.95;;;;;;;3.58;100.00;96891.72;5051685;28;20733;-62
2021/10/25 06:23:31;;;;;;;14.95;8.20;;;;;;;3.72;100.00;96890.91;5049178;28;20065;-62
2021/10/25 06:26:02;;;;;;;16.38;9.77;;;;;;;3.89;100.00;96889.88;5044904;28;20060;-60
2021/10/25 06:28:31;;;;;;;9.70;7.72;;;;;;;3.76;100.00;96889.78;5016868;28;20525;-60
2021/10/25 06:31:03;;;;;;;14.25;8.25;;;;;;;4.26;100.00;96891.06;5014108;28;20073;-60
2021/10/25 06:33:36;;;;;;;11.95;8.25;;;;;;;4.18;100.00;96886.31;5022774;28;20085;-60
2021/10/25 06:36:06;;;;;;;12.13;8.43;;;;;;;4.52;100.00;96884.22;5047481;28;20092;-60
2021/10/25 06:38:38;;;;;;;11.55;8.65;;;;;;;4.66;100.00;96888.56;5035743;28;20753;-62
2021/10/25 06:41:08;;;;;;;9.82;7.65;;;;;;;4.25;100.00;96889.41;5022525;28;20092;-61
2021/10/25 06:43:36;;;;;;;10.88;8.13;;;;;;;4.78;100.00;96894.78;5036563;28;20073;-62
2021/10/25 06:46:06;;;;;;;11.88;7.82;;;;;;;4.90;100.00;96894.84;5043186;28;20060;-60
2021/10/25 06:48:34;;;;;;;11.75;7.65;;;;;;;5.04;100.00;96891.34;5046473;28;20049;-58
2021/10/25 06:51:03;;;;;;;12.13;8.10;;;;;;;5.07;100.00;96887.69;5024582;28;20080;-61
2021/10/25 06:53:32;;;;;;;10.68;8.32;;;;;;;5.12;100.00;96891.66;5014726;28;20096;-61
2021/10/25 06:56:00;;;;;;;25.98;16.27;;;;;;;5.10;100.00;96887.50;5028407;28;20088;-63
2021/10/25 06:58:30;;;;;;;11.30;8.27;;;;;;;5.02;100.00;96895.81;5032392;28;20555;-61
2021/10/25 07:01:00;;;;;;;17.80;11.10;;;;;;;4.90;100.00;96900.06;5047541;28;20073;-60
2021/10/25 07:03:29;;;;;;;15.05;9.07;;;;;;;5.05;100.00;96900.00;5021162;28;20500;-62
2021/10/25 07:06:01;;;;;;;15.55;9.35;;;;;;;4.87;100.00;96902.88;5022748;28;20089;-61
2021/10/25 07:08:31;;;;;;;28.88;15.98;;;;;;;5.04;100.00;96899.19;5022572;28;20066;-60
2021/10/25 07:11:00;;;;;;;41.70;25.55;;;;;;;5.47;100.00;96893.72;5031781;28;20453;-56
2021/10/25 07:13:30;;;;;;;14.73;10.60;;;;;;;5.57;100.00;96892.16;5048102;28;20073;-63
2021/10/25 07:16:03;;;;;;;16.08;9.95;;;;;;;5.50;100.00;96888.28;5048097;28;20155;-62
2021/10/25 07:18:35;;;;;;;14.43;9.43;;;;;;;5.90;100.00;96894.28;5039702;28;20121;-64
2021/10/25 07:21:29;;;;;;;13.48;9.52;;;;;;;5.59;100.00;96902.53;5024716;28;20529;-62
2021/10/25 07:27:05;;;;;;;14.73;10.07;;;;;;;5.42;100.00;96904.50;5029063;28;20081;-62
2021/10/25 08:03:20;;;;;;;10.52;7.05;;;;;;;7.83;100.00;96916.25;5046270;28;20231;-61
2021/10/25 08:06:05;;;;;;;13.48;9.50;;;;;;;8.18;100.00;96913.53;5040593;28;20072;-63
2021/10/25 08:08:51;;;;;;;13.50;9.00;;;;;;;8.40;100.00;96915.38;5033931;28;20076;-60
2021/10/25 08:11:21;;;;;;;13.70;9.18;;;;;;;8.63;100.00;96905.66;5016760;28;20064;-62
2021/10/25 08:14:11;;;;;;;11.07;8.98;;;;;;;8.56;100.00;96891.34;5008062;28;20080;-61
2021/10/25 08:16:45;;;;;;;16.08;9.63;;;;;;;8.63;100.00;96905.66;5031353;28;20096;-61
2021/10/25 08:19:26;;;;;;;17.23;11.05;;;;;;;9.08;100.00;96905.56;5041144;28;20064;-61
2021/10/25 08:21:57;;;;;;;13.55;8.85;;;;;;;9.23;100.00;96914.03;5033619;28;20522;-63
2021/10/25 08:24:27;;;;;;;15.25;9.55;;;;;;;9.55;100.00;96907.91;5014899;28;20049;-64
2021/10/25 08:26:55;;;;;;;15.43;9.32;;;;;;;9.87;100.00;96913.13;5027725;28;20081;-62
2021/10/25 08:29:24;;;;;;;16.40;8.80;;;;;;;10.01;100.00;96904.88;5008209;28;20072;-57
2021/10/25 08:32:09;;;;;;;16.80;9.52;;;;;;;10.15;100.00;96908.97;5029728;28;20076;-58
2021/10/25 08:34:51;;;;;;;11.65;8.48;;;;;;;9.20;100.00;96909.84;5033784;28;20080;-61
2021/10/25 08:40:07;;;;;;;11.82;8.55;;;;;;;9.95;100.00;96911.53;5026827;28;20084;-62
2021/10/25 08:42:37;;;;;;;13.73;7.28;;;;;;;10.13;100.00;96908.28;5017767;28;20092;-63
2021/10/25 08:45:09;;;;;;;10.07;7.60;;;;;;;9.96;100.00;96902.66;5032517;28;20081;-61
2021/10/25 08:47:40;;;;;;;10.38;7.00;;;;;;;9.72;100.00;96913.44;5018775;28;20088;-56
2021/10/25 08:50:13;;;;;;;13.10;6.97;;;;;;;10.21;100.00;96905.81;5031558;28;20682;-62
2021/10/25 08:52:42;;;;;;;10.07;6.13;;;;;;;10.83;100.00;96902.19;5037107;28;20069;-61
2021/10/25 08:55:13;;;;;;;10.75;6.72;;;;;;;10.89;100.00;96901.66;5036866;28;20069;-61
2021/10/25 08:57:41;;;;;;;;;;;;;;;11.06;100.00;96899.34;5028940;28;20477;-63
2021/10/25 09:00:12;;;;;;;13.60;8.18;;;;;;;11.53;100.00;96889.78;5049169;28;19959;-60
2021/10/25 09:02:40;;;;;;;;;;;;;;;11.60;100.00;96885.59;5024666;28;20587;-63
2021/10/25 09:05:12;;;;;;;14.95;9.68;;;;;;;11.64;100.00;96889.63;5029582;28;19971;-63
2021/10/25 09:07:51;;;;;;;14.05;8.90;;;;;;;11.51;100.00;96893.53;5032070;28;20069;-63
2021/10/25 09:10:23;;;;;;;14.40;8.95;;;;;;;11.83;100.00;96886.09;5014916;28;20076;-61
2021/10/25 09:12:54;;;;;;;11.82;8.55;;;;;;;11.77;100.00;96888.50;5025359;28;20107;-63
2021/10/25 09:15:25;;;;;;;12.98;7.85;;;;;;;11.48;100.00;96889.34;5029796;28;20085;-59
2021/10/25 09:17:53;;;;;;;9.25;7.32;;;;;;;11.18;100.00;96898.22;5034347;28;20084;-64
2021/10/25 09:20:23;;;;;;;10.45;6.22;;;;;;;11.59;100.00;96899.75;5016476;28;20074;-64
2021/10/25 09:23:05;;;;;;;6.82;5.25;;;;;;;12.06;95.73;96899.88;5018506;28;20076;-60
2021/10/25 09:25:34;;;;;;;8.40;6.15;;;;;;;12.23;90.49;96895.66;5022846;28;20449;-61
2021/10/25 09:28:09;;;;;;;9.88;5.50;;;;;;;12.66;86.54;96888.09;5045014;28;20065;-60
2021/10/25 09:30:41;;;;;;;6.57;5.88;;;;;;;11.88;99.93;96881.28;5045950;28;20079;-59
2021/10/25 09:33:09;;;;;;;10.85;6.53;;;;;;;12.31;94.58;96884.34;5047542;28;20085;-61
2021/10/25 09:35:43;;;;;;;7.32;5.97;;;;;;;12.62;93.18;96895.47;5027215;28;20073;-58
2021/10/25 09:38:21;;;;;;;10.18;5.90;;;;;;;12.72;92.93;96890.97;5046787;28;20064;-55
2021/10/25 09:41:03;;;;;;;10.00;6.20;;;;;;;12.99;87.46;96882.19;5044011;28;20064;-57
2021/10/25 09:46:38;;;;;;;10.00;6.22;;;;;;;12.63;97.48;96893.66;4983997;28;20187;-62
2021/10/25 09:49:08;;;;;;;8.77;5.85;;;;;;;13.01;89.20;96885.53;5029794;28;20083;-60
2021/10/25 09:51:39;;;;;;;9.18;5.93;;;;;;;12.90;87.92;96880.44;5046844;28;20077;-63
2021/10/25 09:54:08;;;;;;;8.18;6.15;;;;;;;12.78;93.18;96885.09;5021842;28;20089;-61
2021/10/25 09:56:44;;;;;;;9.77;6.32;;;;;;;12.37;97.72;96875.84;5014276;28;20470;-61
2021/10/25 09:59:28;;;;;;;8.77;5.93;;;;;;;13.29;89.03;96877.56;5018375;28;20078;-63
2021/10/25 10:01:57;;;;;;;8.25;6.00;;;;;;;13.26;85.35;96873.41;5016964;28;20074;-59
2021/10/25 10:04:26;;;;;;;9.13;6.60;;;;;;;13.17;88.17;96870.78;5019382;28;20077;-62
2021/10/25 10:06:56;;;;;;;9.23;6.68;;;;;;;12.95;92.07;96875.53;5018943;28;20056;-64
2021/10/25 10:09:25;;;;;;;10.40;6.90;;;;;;;12.69;91.03;96871.91;5023192;28;20085;-63
2021/10/25 10:11:56;;;;;;;10.90;6.20;;;;;;;12.57;85.28;96872.13;5023711;28;20080;-61
2021/10/25 10:14:25;;;;;;;8.05;6.32;;;;;;;13.48;79.87;96873.91;5029445;28;20081;-63
2021/10/25 10:16:54;;;;;;;8.95;6.82;;;;;;;13.88;76.40;96869.94;5031471;28;20533;-61
2021/10/25 10:19:24;;;;;;;8.35;6.78;;;;;;;13.44;83.62;96867.25;5017490;28;20466;-61
2021/10/25 10:21:53;;;;;;;;;;;;;;;14.25;77.02;96873.16;5021709;28;20053;-64
2021/10/25 10:24:30;;;;;;;16.65;8.48;;;;;;;13.41;84.97;96868.38;5042084;28;19975;-63
2021/10/25 10:27:00;;;;;;;18.08;9.02;;;;;;;13.93;79.73;96857.84;5047445;28;20080;-61
2021/10/25 10:29:37;;;;;;;43.45;15.27;;;;;;;14.63;74.96;96851.63;5032387;28;20533;-61
2021/10/25 10:32:13;;;;;;;325.05;97.00;;;;;;;14.38;76.88;96861.25;5024364;28;20107;-63
2021/10/25 10:34:44;;;;;;;12.30;8.48;;;;;;;14.38;78.70;96856.81;5034253;28;20449;-61
2021/10/25 10:37:18;;;;;;;97.93;31.38;;;;;;;14.19;81.80;96854.38;5049134;28;20064;-62
2021/10/25 10:39:58;;;;;;;11.15;7.10;;;;;;;13.93;82.81;96841.94;5031564;28;20500;-63
2021/10/25 10:42:27;;;;;;;12.05;7.78;;;;;;;14.30;81.03;96834.69;5029860;28;20569;-57
2021/10/25 10:45:00;;;;;;;19.80;14.48;;;;;;;14.85;80.40;96831.63;5040990;28;20088;-61
2021/10/25 10:47:36;;;;;;;32.00;18.77;;;;;;;15.05;78.28;96829.50;5045600;28;20068;-63
2021/10/25 10:50:06;;;;;;;13.48;10.10;;;;;;;13.93;85.84;96834.00;5041630;28;20074;-63
2021/10/25 10:52:36;;;;;;;8.95;7.25;;;;;;;14.21;83.20;96829.38;5033430;28;20061;-61
2021/10/25 10:55:19;;;;;;;12.65;8.70;;;;;;;14.80;76.69;96829.47;5040819;28;20092;-60
2021/10/25 11:00:40;;;;;;;12.52;9.18;;;;;;;15.04;74.10;96820.72;5026641;28;20077;-63
2021/10/25 11:03:17;;;;;;;13.52;9.15;;;;;;;14.87;76.78;96822.50;5042366;28;20080;-62
2021/10/25 11:05:50;;;;;;;11.75;8.73;;;;;;;14.06;85.74;96828.28;5041258;28;21381;-63
2021/10/25 11:08:21;;;;;;;14.32;9.77;;;;;;;14.23;84.16;96834.50;5027396;28;20077;-62
2021/10/25 11:11:02;;;;;;;13.43;10.23;;;;;;;15.28;77.43;96822.56;5022158;28;20080;-63
2021/10/25 11:13:35;;;;;;;12.93;10.25;;;;;;;15.12;78.20;96817.22;5029514;28;20096;-62
2021/10/25 11:16:07;;;;;;;13.30;9.68;;;;;;;15.55;74.67;96824.03;5016220;28;20057;-61
2021/10/25 11:18:37;;;;;;;12.25;9.35;;;;;;;15.78;71.39;96816.25;5015141;28;20139;-59
2021/10/25 11:21:19;;;;;;;13.48;9.77;;;;;;;15.96;71.14;96813.41;5050604;28;20076;-63
2021/10/25 11:23:51;;;;;;;13.55;10.10;;;;;;;16.05;68.27;96811.56;5021128;28;20716;-61
2021/10/25 11:26:23;;;;;;;14.68;10.32;;;;;;;16.25;68.49;96810.19;5027982;28;20069;-61
2021/10/25 11:29:00;;;;;;;19.05;13.45;;;;;;;15.92;69.12;96812.06;5033405;28;20073;-63
2021/10/25 11:31:29;;;;;;;14.98;11.30;;;;;;;15.46;71.93;96801.16;5035291;28;20064;-63
2021/10/25 11:33:58;;;;;;;15.25;11.32;;;;;;;14.85;77.18;96803.25;5047061;28;20068;-63
2021/10/25 11:36:30;;;;;;;16.92;11.05;;;;;;;15.47;74.79;96799.31;5041649;28;20096;-62
2021/10/25 11:39:02;;;;;;;15.57;11.23;;;;;;;16.05;71.14;96795.59;5044398;28;20099;-63
2021/10/25 11:41:34;;;;;;;18.23;12.05;;;;;;;15.38;74.26;96793.16;5027144;28;20073;-63
2021/10/25 11:44:13;;;;;;;13.82;10.38;;;;;;;15.31;75.92;96787.69;5038944;28;20539;-63
2021/10/25 11:46:41;;;;;;;15.27;11.20;;;;;;;15.29;78.28;96783.53;5029936;28;20198;-61
2021/10/25 11:49:10;;;;;;;16.05;11.63;;;;;;;14.75;85.72;96793.75;5025791;28;20061;-64
2021/10/25 11:51:47;;;;;;;20.83;13.13;;;;;;;14.81;86.12;96787.81;5032592;28;20520;-61
2021/10/25 11:54:16;;;;;;;15.13;11.93;;;;;;;15.06;84.24;96791.31;5049835;28;20091;-64
2021/10/25 11:56:52;;;;;;;17.48;13.02;;;;;;;14.13;92.68;96791.34;5019968;28;21362;-64
2021/10/25 11:59:21;;;;;;;16.83;13.43;;;;;;;14.96;87.28;96773.72;5025483;28;20472;-64
2021/10/25 12:01:50;;;;;;;18.45;13.55;;;;;;;14.71;92.81;96769.38;5028796;28;20694;-62
2021/10/25 12:04:19;;;;;;;20.58;16.00;;;;;;;15.23;86.38;96773.56;5035322;28;20161;-62
2021/10/25 12:06:58;;;;;;;23.60;16.05;;;;;;;15.34;87.59;96775.88;5046068;28;20072;-63
2021/10/25 12:09:35;;;;;;;19.42;15.90;;;;;;;15.18;86.00;96780.22;5034827;28;20096;-63
2021/10/25 12:12:13;;;;;;;22.05;16.50;;;;;;;15.66;80.34;96781.22;5042319;28;20553;-61
2021/10/25 12:14:44;;;;;;;19.98;14.82;;;;;;;15.48;80.27;96777.88;5028148;28;20073;-61
2021/10/25 12:17:17;;;;;;;23.05;16.23;;;;;;;15.36;82.19;96773.91;5029416;28;20073;-63
2021/10/25 12:19:46;;;;;;;21.05;15.73;;;;;;;15.80;76.81;96779.69;5047034;28;20099;-59
2021/10/25 12:22:18;;;;;;;23.63;15.32;;;;;;;16.16;73.83;96778.44;5041232;28;20076;-62
2021/10/25 12:24:48;;;;;;;23.52;15.73;;;;;;;15.93;74.29;96767.69;5033790;28;20057;-60
2021/10/25 12:27:21;;;;;;;23.70;16.65;;;;;;;15.85;76.72;96766.72;5037278;28;20054;-59
2021/10/25 12:29:59;;;;;;;22.13;15.95;;;;;;;16.35;71.96;96767.41;5034918;28;20589;-59
2021/10/25 12:32:28;;;;;;;21.05;14.88;;;;;;;16.32;71.38;96757.91;5043257;28;20085;-63
2021/10/25 12:34:58;;;;;;;20.17;15.30;;;;;;;16.40;70.49;96753.56;5037562;28;20061;-61
2021/10/25 12:37:29;;;;;;;19.60;15.40;;;;;;;16.09;70.80;96754.34;5036994;28;20060;-58
2021/10/25 12:40:16;;;;;;;21.98;16.02;;;;;;;16.19;72.26;96752.31;5028124;28;20057;-58
2021/10/25 12:42:46;;;;;;;20.30;14.55;;;;;;;16.37;71.63;96744.91;5020196;28;20044;-60
2021/10/25 12:45:17;;;;;;;20.13;15.35;;;;;;;16.51;70.75;96751.31;5023265;28;20092;-58
2021/10/25 12:47:45;;;;;;;;;;;;;;;16.53;68.67;96748.50;5031771;28;20803;-61
2021/10/25 12:50:15;;;;;;;20.33;15.27;;;;;;;15.75;75.28;96743.97;5012200;28;19960;-62
2021/10/25 12:52:44;;;;;;;20.30;15.27;;;;;;;16.24;74.15;96736.66;5026466;28;20065;-61